| time (UTC) | temp C | wind direction | speed KPH | gust KPH | rain 1hr cm | rain 24hr cm | rain mn cm | humidity % | barometer mb |
| 20260507075803 | 11 | 202 | 3.2 | 3.2 | 0.00 | 0.00 | 0.00 | 82 | 1021.3 |
| 20260507075259 | 11 | 182 | 4.8 | 6.4 | 0.00 | 0.00 | 0.00 | 82 | 1021.2 |
| 20260507074756 | 11 | 197 | 6.4 | 9.7 | 0.00 | 0.00 | 0.00 | 83 | 1021.3 |
| 20260507074254 | 11 | 213 | 6.4 | 6.4 | 0.00 | 0.00 | 0.00 | 84 | 1021.2 |
| 20260507073751 | 11 | 182 | 1.6 | 3.2 | 0.00 | 0.00 | 0.00 | 84 | 1021.1 |
| 20260507073247 | 11 | 215 | 4.8 | 4.8 | 0.00 | 0.00 | 0.00 | 85 | 1021.2 |
| 20260507072745 | 11 | 204 | 3.2 | 3.2 | 0.00 | 0.00 | 0.00 | 86 | 1021.1 |
| 20260507072242 | 11 | 150 | 3.2 | 3.2 | 0.00 | 0.00 | 0.00 | 86 | 1021.2 |
| 20260507071739 | 11 | 105 | 0.0 | 1.6 | 0.00 | 0.00 | 0.00 | 87 | 1021.2 |
| 20260507071236 | 11 | 180 | 1.6 | 3.2 | 0.00 | 0.00 | 0.00 | 87 | 1021.1 |
| 20260507070733 | 11 | 152 | 3.2 | 3.2 | 0.00 | 0.00 | 0.00 | 87 | 1021.0 |
| 20260507070230 | 11 | 99 | 0.0 | 1.6 | 0.00 | 0.00 | 0.00 | 88 | 1021.1 |
| 20260507065726 | 11 | 250 | 3.2 | 4.8 | 0.00 | 0.00 | 0.00 | 88 | 1021.2 |
| 20260507065223 | 11 | 196 | 3.2 | 4.8 | 0.00 | 0.00 | 0.00 | 89 | 1021.1 |
| 20260507064720 | 10 | 203 | 3.2 | 3.2 | 0.00 | 0.00 | 0.00 | 90 | 1021.2 |
| 20260507064220 | 11 | 165 | 3.2 | 3.2 | 0.00 | 0.00 | 0.00 | 91 | 1021.3 |
| 20260507063716 | 11 | 102 | 0.0 | 0.0 | 0.00 | 0.00 | 0.00 | 91 | 1021.2 |
| 20260507063213 | 11 | 165 | 3.2 | 3.2 | 0.00 | 0.00 | 0.00 | 90 | 1021.1 |
| 20260507062710 | 11 | 143 | 3.2 | 4.8 | 0.00 | 0.00 | 0.00 | 90 | 1021.0 |
| 20260507062208 | 11 | 164 | 3.2 | 3.2 | 0.00 | 0.00 | 0.00 | 89 | 1021.2 |
| 20260507061705 | 11 | 240 | 4.8 | 6.4 | 0.00 | 0.00 | 0.00 | 88 | 1021.2 |
| 20260507061203 | 11 | 212 | 8.0 | 11.3 | 0.00 | 0.00 | 0.00 | 87 | 1021.0 |
| 20260507060701 | 11 | 287 | 3.2 | 4.8 | 0.00 | 0.00 | 0.00 | 87 | 1021.3 |
| 20260507060157 | 11 | 58 | 0.0 | 1.6 | 0.00 | 0.00 | 0.00 | 87 | 1021.1 |
| 20260507055653 | 11 | 258 | 4.8 | 4.8 | 0.00 | 0.00 | 0.00 | 86 | 1021.1 |
| 20260507055149 | 11 | 222 | 3.2 | 3.2 | 0.00 | 0.00 | 0.00 | 86 | 1021.3 |
| 20260507054645 | 11 | 224 | 1.6 | 1.6 | 0.00 | 0.00 | 0.00 | 85 | 1021.2 |
| 20260507054142 | 11 | 58 | 0.0 | 0.0 | 0.00 | 0.00 | 0.00 | 84 | 1021.2 |
| 20260507053640 | 11 | 59 | 0.0 | 0.0 | 0.00 | 0.00 | 0.00 | 83 | 1021.2 |
| 20260507053138 | 11 | 36 | 0.0 | 0.0 | 0.00 | 0.00 | 0.00 | 82 | 1021.2 |
| 20260507052636 | 12 | 113 | 3.2 | 3.2 | 0.00 | 0.00 | 0.00 | 81 | 1021.3 |
| 20260507052132 | 12 | 48 | 1.6 | 1.6 | 0.00 | 0.00 | 0.00 | 80 | 1021.2 |
| 20260507051630 | 12 | 70 | 0.0 | 0.0 | 0.00 | 0.00 | 0.00 | 79 | 1021.2 |
| 20260507051126 | 12 | 82 | 0.0 | 1.6 | 0.00 | 0.00 | 0.00 | 78 | 1021.3 |
| 20260507050623 | 12 | 224 | 6.4 | 9.7 | 0.00 | 0.00 | 0.00 | 77 | 1021.1 |
| 20260507050120 | 12 | 206 | 4.8 | 4.8 | 0.00 | 0.00 | 0.00 | 78 | 1021.1 |
| 20260507045617 | 12 | 78 | 0.0 | 0.0 | 0.00 | 0.00 | 0.00 | 78 | 1021.2 |
| 20260507045113 | 12 | 206 | 3.2 | 4.8 | 0.00 | 0.00 | 0.00 | 78 | 1021.1 |
| 20260507044610 | 12 | 46 | 1.6 | 3.2 | 0.00 | 0.00 | 0.00 | 78 | 1021.2 |
| 20260507044107 | 12 | 64 | 1.6 | 3.2 | 0.00 | 0.00 | 0.00 | 78 | 1021.1 |
| 20260507043603 | 12 | 148 | 3.2 | 4.8 | 0.00 | 0.00 | 0.00 | 77 | 1021.1 |
| 20260507043100 | 12 | 224 | 6.4 | 14.5 | 0.00 | 0.00 | 0.00 | 77 | 1021.1 |
| 20260507042556 | 12 | 134 | 1.6 | 1.6 | 0.00 | 0.00 | 0.00 | 77 | 1021.1 |
| 20260507042052 | 12 | 244 | 1.6 | 3.2 | 0.00 | 0.00 | 0.00 | 77 | 1021.1 |
| 20260507041549 | 12 | 196 | 4.8 | 4.8 | 0.00 | 0.00 | 0.00 | 77 | 1021.0 |
| 20260507041046 | 12 | 129 | 0.0 | 0.0 | 0.00 | 0.00 | 0.00 | 77 | 1020.9 |
| 20260507040542 | 12 | 122 | 1.6 | 1.6 | 0.00 | 0.00 | 0.00 | 77 | 1021.1 |
| 20260507040038 | 12 | 288 | 4.8 | 4.8 | 0.00 | 0.00 | 0.00 | 76 | 1021.1 |
| 20260507035535 | 12 | 181 | 1.6 | 3.2 | 0.00 | 0.00 | 0.00 | 77 | 1020.9 |
| 20260507035031 | 12 | 211 | 6.4 | 6.4 | 0.00 | 0.00 | 0.00 | 76 | 1020.9 |
| 20260507034528 | 12 | 115 | 1.6 | 1.6 | 0.00 | 0.00 | 0.00 | 77 | 1020.8 |
| 20260507034026 | 12 | 210 | 3.2 | 4.8 | 0.00 | 0.00 | 0.00 | 77 | 1021.0 |
| 20260507033524 | 13 | 206 | 3.2 | 4.8 | 0.00 | 0.00 | 0.00 | 77 | 1020.9 |
| 20260507033021 | 13 | 153 | 1.6 | 3.2 | 0.00 | 0.00 | 0.00 | 77 | 1020.8 |
| 20260507032518 | 13 | 118 | 3.2 | 3.2 | 0.00 | 0.00 | 0.00 | 76 | 1020.8 |
| 20260507032014 | 13 | 178 | 3.2 | 4.8 | 0.00 | 0.00 | 0.00 | 77 | 1020.7 |
| 20260507031510 | 13 | 224 | 4.8 | 6.4 | 0.00 | 0.00 | 0.00 | 76 | 1020.5 |
| 20260507031008 | 13 | 202 | 1.6 | 1.6 | 0.00 | 0.00 | 0.00 | 77 | 1020.5 |
| 20260507030504 | 13 | 160 | 6.4 | 9.7 | 0.00 | 0.00 | 0.00 | 76 | 1020.4 |
| 20260507030002 | 13 | 230 | 3.2 | 6.4 | 0.00 | 0.00 | 0.00 | 76 | 1020.4 |
| 20260507025458 | 13 | 285 | 3.2 | 4.8 | 0.00 | 0.00 | 0.00 | 76 | 1020.5 |
| 20260507024956 | 13 | 102 | 1.6 | 1.6 | 0.00 | 0.00 | 0.00 | 76 | 1020.4 |
| 20260507024453 | 13 | 196 | 1.6 | 1.6 | 0.00 | 0.00 | 0.00 | 76 | 1020.5 |
| 20260507023949 | 13 | 64 | 1.6 | 3.2 | 0.00 | 0.00 | 0.00 | 75 | 1020.5 |
| 20260507023446 | 13 | 72 | 0.0 | 0.0 | 0.00 | 0.00 | 0.00 | 75 | 1020.4 |
| 20260507022943 | 13 | 239 | 3.2 | 4.8 | 0.00 | 0.00 | 0.00 | 75 | 1020.3 |
| 20260507022441 | 13 | 232 | 4.8 | 4.8 | 0.00 | 0.00 | 0.00 | 75 | 1020.4 |
| 20260507021936 | 13 | 15 | 1.6 | 1.6 | 0.00 | 0.00 | 0.00 | 75 | 1020.1 |
| 20260507021431 | 13 | 194 | 6.4 | 6.4 | 0.00 | 0.00 | 0.00 | 75 | 1020.3 |
| 20260507020929 | 13 | 2 | 6.4 | 11.3 | 0.00 | 0.00 | 0.00 | 74 | 1020.3 |
| 20260507020426 | 13 | 248 | 4.8 | 6.4 | 0.00 | 0.00 | 0.00 | 74 | 1020.4 |
| 20260507015923 | 13 | 230 | 4.8 | 4.8 | 0.00 | 0.00 | 0.00 | 75 | 1020.5 |
| 20260507015421 | 13 | 220 | 1.6 | 3.2 | 0.00 | 0.00 | 0.00 | 74 | 1020.4 |
| 20260507014918 | 13 | 95 | 3.2 | 3.2 | 0.00 | 0.00 | 0.00 | 73 | 1020.4 |
| 20260507014414 | 13 | 326 | 3.2 | 3.2 | 0.00 | 0.00 | 0.00 | 74 | 1020.3 |
| 20260507013910 | 13 | 185 | 3.2 | 3.2 | 0.00 | 0.00 | 0.00 | 73 | 1020.3 |
| 20260507013408 | 13 | 270 | 3.2 | 4.8 | 0.00 | 0.00 | 0.00 | 73 | 1020.5 |
| 20260507012905 | 14 | 74 | 0.0 | 1.6 | 0.00 | 0.00 | 0.00 | 73 | 1020.4 |
| 20260507012401 | 14 | 146 | 4.8 | 6.4 | 0.00 | 0.00 | 0.00 | 74 | 1020.5 |
| 20260507011858 | 14 | 155 | 3.2 | 4.8 | 0.00 | 0.00 | 0.00 | 72 | 1020.5 |
| 20260507011355 | 15 | 81 | 3.2 | 4.8 | 0.00 | 0.00 | 0.00 | 72 | 1020.3 |
| 20260507010855 | 15 | 151 | 3.2 | 3.2 | 0.00 | 0.00 | 0.00 | 73 | 1020.3 |
| 20260507010351 | 15 | 43 | 1.6 | 1.6 | 0.00 | 0.00 | 0.00 | 72 | 1020.3 |
| 20260507005848 | 15 | 169 | 3.2 | 4.8 | 0.00 | 0.00 | 0.00 | 73 | 1020.5 |
| 20260507005345 | 15 | 218 | 3.2 | 4.8 | 0.00 | 0.00 | 0.00 | 72 | 1020.2 |
| 20260507004842 | 15 | 68 | 1.6 | 1.6 | 0.00 | 0.00 | 0.00 | 72 | 1020.6 |
| 20260507004339 | 15 | 211 | 6.4 | 6.4 | 0.00 | 0.00 | 0.00 | 72 | 1020.5 |
| 20260507003836 | 15 | 218 | 6.4 | 6.4 | 0.00 | 0.00 | 0.00 | 72 | 1020.4 |
| 20260507003331 | 15 | 255 | 6.4 | 6.4 | 0.00 | 0.00 | 0.00 | 72 | 1020.4 |
| 20260507002826 | 15 | 51 | 0.0 | 1.6 | 0.00 | 0.00 | 0.00 | 73 | 1020.4 |
| 20260507002322 | 15 | 13 | 4.8 | 4.8 | 0.00 | 0.00 | 0.00 | 73 | 1020.2 |
| 20260507001820 | 14 | 9 | 1.6 | 1.6 | 0.00 | 0.00 | 0.00 | 73 | 1020.3 |
| 20260507001317 | 14 | 23 | 1.6 | 1.6 | 0.00 | 0.00 | 0.00 | 73 | 1020.5 |
| 20260507000813 | 14 | 290 | 3.2 | 4.8 | 0.00 | 0.00 | 0.00 | 73 | 1020.4 |
| 20260507000309 | 15 | 234 | 8.0 | 12.9 | 0.00 | 0.00 | 0.00 | 72 | 1020.5 |
| 20260506235806 | 15 | 221 | 9.7 | 11.3 | 0.00 | 0.00 | 0.00 | 70 | 1020.4 |
| 20260506235306 | 15 | 219 | 3.2 | 3.2 | 0.00 | 0.00 | 0.00 | 71 | 1020.4 |
| 20260506234759 | 15 | 203 | 6.4 | 6.4 | 0.00 | 0.00 | 0.00 | 71 | 1020.4 |
| 20260506234256 | 15 | 97 | 0.0 | 1.6 | 0.00 | 0.00 | 0.00 | 71 | 1020.3 |
| 20260506233754 | 15 | 315 | 3.2 | 4.8 | 0.00 | 0.00 | 0.00 | 71 | 1020.5 |
| 20260506233250 | 15 | 226 | 11.3 | 12.9 | 0.00 | 0.00 | 0.00 | 70 | 1020.4 |
| 20260506232747 | 15 | 247 | 3.2 | 6.4 | 0.00 | 0.00 | 0.00 | 71 | 1020.4 |
| 20260506232241 | 15 | 238 | 6.4 | 9.7 | 0.00 | 0.00 | 0.00 | 70 | 1020.5 |
| 20260506231739 | 15 | 204 | 11.3 | 14.5 | 0.00 | 0.00 | 0.00 | 69 | 1020.5 |
| 20260506231238 | 15 | 277 | 3.2 | 4.8 | 0.00 | 0.00 | 0.00 | 69 | 1020.4 |
| 20260506230734 | 15 | 210 | 3.2 | 3.2 | 0.00 | 0.00 | 0.00 | 69 | 1020.3 |
| 20260506230231 | 15 | 201 | 3.2 | 3.2 | 0.00 | 0.00 | 0.00 | 68 | 1020.4 |
| 20260506225727 | 15 | 68 | 0.0 | 1.6 | 0.00 | 0.00 | 0.00 | 69 | 1020.6 |
| 20260506225224 | 15 | 62 | 1.6 | 1.6 | 0.00 | 0.00 | 0.00 | 71 | 1020.4 |
| 20260506224721 | 15 | 256 | 6.4 | 9.7 | 0.00 | 0.00 | 0.00 | 69 | 1020.6 |
| 20260506224218 | 15 | 218 | 11.3 | 12.9 | 0.00 | 0.00 | 0.00 | 69 | 1020.6 |
| 20260506223714 | 15 | 213 | 8.0 | 9.7 | 0.00 | 0.00 | 0.00 | 69 | 1020.7 |
| 20260506223210 | 15 | 58 | 3.2 | 3.2 | 0.00 | 0.00 | 0.00 | 71 | 1020.8 |
| 20260506222707 | 15 | 264 | 6.4 | 9.7 | 0.00 | 0.00 | 0.00 | 70 | 1020.8 |
| 20260506222202 | 15 | 308 | 6.4 | 6.4 | 0.00 | 0.00 | 0.00 | 70 | 1020.6 |
| 20260506221701 | 15 | 157 | 6.4 | 6.4 | 0.00 | 0.00 | 0.00 | 70 | 1020.8 |
| 20260506221159 | 15 | 291 | 4.8 | 6.4 | 0.00 | 0.00 | 0.00 | 70 | 1020.6 |
| 20260506220655 | 15 | 48 | 0.0 | 1.6 | 0.00 | 0.00 | 0.00 | 70 | 1020.8 |
| 20260506220150 | 15 | 186 | 8.0 | 11.3 | 0.00 | 0.00 | 0.00 | 70 | 1020.7 |
| 20260506215647 | 15 | 57 | 8.0 | 11.3 | 0.00 | 0.00 | 0.00 | 69 | 1020.8 |
| 20260506215142 | 15 | 248 | 4.8 | 6.4 | 0.00 | 0.00 | 0.00 | 70 | 1020.8 |
| 20260506214639 | 15 | 224 | 8.0 | 11.3 | 0.00 | 0.00 | 0.00 | 69 | 1020.8 |
| 20260506214137 | 15 | 16 | 1.6 | 1.6 | 0.00 | 0.00 | 0.00 | 70 | 1020.8 |
| 20260506213635 | 15 | 214 | 11.3 | 14.5 | 0.00 | 0.00 | 0.00 | 69 | 1020.8 |
| 20260506213132 | 15 | 217 | 8.0 | 12.9 | 0.00 | 0.00 | 0.00 | 70 | 1020.7 |
| 20260506212629 | 15 | 157 | 1.6 | 3.2 | 0.00 | 0.00 | 0.00 | 71 | 1020.7 |
| 20260506212124 | 15 | 210 | 8.0 | 12.9 | 0.00 | 0.00 | 0.00 | 70 | 1020.8 |
| 20260506211619 | 15 | 303 | 1.6 | 3.2 | 0.00 | 0.00 | 0.00 | 70 | 1020.7 |
| 20260506211117 | 15 | 173 | 4.8 | 6.4 | 0.00 | 0.00 | 0.00 | 67 | 1020.8 |
| 20260506210614 | 15 | 211 | 6.4 | 9.7 | 0.00 | 0.00 | 0.00 | 67 | 1020.7 |
| 20260506210110 | 15 | 105 | 0.0 | 1.6 | 0.00 | 0.00 | 0.00 | 69 | 1020.6 |
| 20260506205607 | 15 | 209 | 4.8 | 9.7 | 0.00 | 0.00 | 0.00 | 69 | 1020.6 |
| 20260506205102 | 15 | 219 | 4.8 | 6.4 | 0.00 | 0.00 | 0.00 | 69 | 1020.7 |
| 20260506204600 | 15 | 228 | 9.7 | 11.3 | 0.00 | 0.00 | 0.00 | 69 | 1020.8 |
| 20260506204057 | 15 | 12 | 3.2 | 4.8 | 0.00 | 0.00 | 0.00 | 70 | 1020.7 |
| 20260506203555 | 15 | 230 | 1.6 | 3.2 | 0.00 | 0.00 | 0.00 | 71 | 1020.7 |
| 20260506203051 | 15 | 83 | 1.6 | 1.6 | 0.00 | 0.00 | 0.00 | 70 | 1020.5 |
| 20260506202549 | 15 | 352 | 3.2 | 3.2 | 0.00 | 0.00 | 0.00 | 70 | 1020.4 |
| 20260506202045 | 15 | 103 | 3.2 | 6.4 | 0.00 | 0.00 | 0.00 | 70 | 1020.6 |
| 20260506201543 | 15 | 164 | 1.6 | 1.6 | 0.00 | 0.00 | 0.00 | 72 | 1020.6 |
| 20260506201039 | 15 | 58 | 4.8 | 6.4 | 0.00 | 0.00 | 0.00 | 71 | 1020.7 |
| 20260506200536 | 15 | 118 | 4.8 | 9.7 | 0.00 | 0.00 | 0.00 | 71 | 1020.5 |
| 20260506200032 | 14 | 189 | 4.8 | 6.4 | 0.00 | 0.00 | 0.00 | 72 | 1020.5 |
| 20260506195529 | 14 | 209 | 8.0 | 9.7 | 0.00 | 0.00 | 0.00 | 71 | 1020.4 |
| 20260506195025 | 14 | 236 | 6.4 | 9.7 | 0.00 | 0.00 | 0.00 | 71 | 1020.6 |
| 20260506194523 | 15 | 211 | 9.7 | 12.9 | 0.00 | 0.00 | 0.00 | 71 | 1020.6 |
| 20260506194020 | 15 | 213 | 3.2 | 6.4 | 0.00 | 0.00 | 0.00 | 72 | 1020.4 |
| 20260506193517 | 15 | 11 | 3.2 | 4.8 | 0.00 | 0.00 | 0.00 | 71 | 1020.4 |
| 20260506193014 | 15 | 230 | 6.4 | 9.7 | 0.00 | 0.00 | 0.00 | 71 | 1020.3 |
| 20260506192511 | 15 | 237 | 1.6 | 3.2 | 0.00 | 0.00 | 0.00 | 72 | 1020.2 |
| 20260506192007 | 15 | 211 | 8.0 | 12.9 | 0.00 | 0.00 | 0.00 | 72 | 1020.4 |
| 20260506191504 | 14 | 64 | 0.0 | 1.6 | 0.00 | 0.00 | 0.00 | 75 | 1020.3 |
| 20260506191000 | 14 | 230 | 9.7 | 12.9 | 0.00 | 0.00 | 0.00 | 74 | 1020.5 |
| 20260506190457 | 13 | 200 | 8.0 | 11.3 | 0.00 | 0.00 | 0.00 | 75 | 1020.3 |
| 20260506185953 | 13 | 318 | 4.8 | 6.4 | 0.00 | 0.00 | 0.00 | 76 | 1020.2 |
| 20260506185451 | 13 | 234 | 6.4 | 9.7 | 0.00 | 0.00 | 0.00 | 76 | 1020.4 |
| 20260506184948 | 13 | 221 | 11.3 | 14.5 | 0.00 | 0.00 | 0.00 | 76 | 1020.4 |
| 20260506184445 | 13 | 194 | 4.8 | 4.8 | 0.00 | 0.00 | 0.00 | 77 | 1020.4 |
| 20260506183942 | 13 | 243 | 1.6 | 3.2 | 0.00 | 0.00 | 0.00 | 78 | 1020.5 |
| 20260506183437 | 13 | 233 | 1.6 | 1.6 | 0.00 | 0.00 | 0.00 | 77 | 1020.5 |
| 20260506182935 | 13 | 134 | 3.2 | 3.2 | 0.00 | 0.00 | 0.00 | 78 | 1020.3 |
| 20260506182432 | 13 | 236 | 8.0 | 11.3 | 0.00 | 0.00 | 0.00 | 77 | 1020.4 |
| 20260506181929 | 13 | 221 | 8.0 | 11.3 | 0.00 | 0.00 | 0.00 | 76 | 1020.4 |
| 20260506181427 | 13 | 355 | 1.6 | 1.6 | 0.00 | 0.00 | 0.00 | 79 | 1020.2 |
| 20260506180923 | 13 | 305 | 4.8 | 4.8 | 0.00 | 0.00 | 0.00 | 79 | 1020.2 |
| 20260506180420 | 13 | 215 | 6.4 | 6.4 | 0.00 | 0.00 | 0.00 | 78 | 1020.1 |
| 20260506175917 | 13 | 303 | 1.6 | 3.2 | 0.00 | 0.00 | 0.00 | 78 | 1020.2 |
| 20260506175414 | 13 | 194 | 4.8 | 4.8 | 0.00 | 0.00 | 0.00 | 78 | 1020.3 |
| 20260506174910 | 13 | 223 | 3.2 | 3.2 | 0.00 | 0.00 | 0.00 | 78 | 1020.1 |
| 20260506174408 | 13 | 282 | 3.2 | 3.2 | 0.00 | 0.00 | 0.00 | 78 | 1020.3 |
| 20260506173905 | 13 | 94 | 0.0 | 0.0 | 0.00 | 0.00 | 0.00 | 79 | 1019.9 |
| 20260506173402 | 13 | 44 | 3.2 | 3.2 | 0.00 | 0.00 | 0.00 | 80 | 1020.2 |
| 20260506172859 | 13 | 233 | 6.4 | 6.4 | 0.00 | 0.00 | 0.00 | 79 | 1020.2 |
| 20260506172355 | 12 | 208 | 9.7 | 11.3 | 0.00 | 0.00 | 0.00 | 80 | 1020.2 |
| 20260506171853 | 12 | 224 | 4.8 | 4.8 | 0.00 | 0.00 | 0.00 | 80 | 1020.3 |
| 20260506171350 | 12 | 229 | 9.7 | 11.3 | 0.00 | 0.00 | 0.00 | 80 | 1020.2 |
| 20260506170848 | 12 | 208 | 4.8 | 6.4 | 0.00 | 0.00 | 0.00 | 80 | 1020.2 |
| 20260506170344 | 12 | 208 | 9.7 | 11.3 | 0.00 | 0.00 | 0.00 | 80 | 1020.1 |
| 20260506165843 | 12 | 198 | 9.7 | 9.7 | 0.00 | 0.00 | 0.00 | 81 | 1020.1 |
| 20260506165341 | 12 | 217 | 8.0 | 9.7 | 0.00 | 0.00 | 0.00 | 81 | 1020.2 |
| 20260506164836 | 12 | 221 | 8.0 | 11.3 | 0.00 | 0.00 | 0.00 | 81 | 1020.2 |
| 20260506164333 | 12 | 339 | 4.8 | 4.8 | 0.00 | 0.00 | 0.00 | 82 | 1020.1 |
| 20260506163831 | 12 | 238 | 4.8 | 4.8 | 0.00 | 0.00 | 0.00 | 81 | 1019.9 |
| 20260506163325 | 12 | 202 | 4.8 | 11.3 | 0.00 | 0.00 | 0.00 | 82 | 1019.9 |
| 20260506162821 | 12 | 154 | 3.2 | 4.8 | 0.00 | 0.00 | 0.00 | 81 | 1019.9 |
| 20260506162319 | 12 | 225 | 8.0 | 12.9 | 0.00 | 0.00 | 0.00 | 81 | 1019.7 |
| 20260506161811 | 12 | 203 | 4.8 | 6.4 | 0.00 | 0.00 | 0.00 | 83 | 1019.7 |
| 20260506161308 | 12 | 228 | 6.4 | 9.7 | 0.00 | 0.00 | 0.00 | 82 | 1019.7 |
| 20260506160805 | 12 | 218 | 6.4 | 9.7 | 0.00 | 0.00 | 0.00 | 82 | 1019.9 |
| 20260506160301 | 12 | 151 | 3.2 | 3.2 | 0.00 | 0.00 | 0.00 | 83 | 1020.0 |
| 20260506155801 | 12 | 220 | 1.6 | 4.8 | 0.00 | 0.00 | 0.00 | 83 | 1019.9 |
| 20260506155257 | 12 | 163 | 3.2 | 3.2 | 0.00 | 0.00 | 0.00 | 84 | 1020.0 |
| 20260506153404 | 12 | 205 | 6.4 | 6.4 | 0.00 | 0.00 | 0.00 | 84 | 1020.1 |
| 20260506152901 | 12 | 256 | 4.8 | 6.4 | 0.00 | 0.00 | 0.00 | 85 | 1019.8 |
| 20260506152358 | 11 | 150 | 4.8 | 6.4 | 0.00 | 0.00 | 0.00 | 85 | 1019.7 |
| 20260506151856 | 11 | 164 | 3.2 | 4.8 | 0.00 | 0.00 | 0.00 | 86 | 1019.8 |
| 20260506151353 | 11 | 186 | 4.8 | 4.8 | 0.00 | 0.00 | 0.00 | 86 | 1019.7 |
| 20260506150850 | 11 | 238 | 6.4 | 6.4 | 0.00 | 0.00 | 0.00 | 86 | 1019.7 |
| 20260506150346 | 11 | 220 | 6.4 | 6.4 | 0.00 | 0.00 | 0.00 | 86 | 1019.8 |
| 20260506145843 | 11 | 176 | 3.2 | 3.2 | 0.00 | 0.00 | 0.00 | 88 | 1020.0 |
| 20260506145339 | 11 | 213 | 4.8 | 4.8 | 0.00 | 0.00 | 0.00 | 87 | 1019.8 |
| 20260506144837 | 11 | 246 | 3.2 | 3.2 | 0.00 | 0.00 | 0.00 | 87 | 1019.8 |
| 20260506144334 | 11 | 146 | 3.2 | 4.8 | 0.00 | 0.00 | 0.00 | 87 | 1019.7 |
| 20260506143832 | 11 | 190 | 4.8 | 6.4 | 0.00 | 0.00 | 0.00 | 87 | 1019.5 |
| 20260506143329 | 11 | 147 | 6.4 | 9.7 | 0.00 | 0.00 | 0.00 | 87 | 1019.6 |
| 20260506142827 | 11 | 220 | 6.4 | 6.4 | 0.00 | 0.00 | 0.00 | 87 | 1019.5 |
| 20260506142325 | 11 | 130 | 3.2 | 3.2 | 0.00 | 0.00 | 0.00 | 87 | 1019.3 |
| 20260506141823 | 11 | 166 | 3.2 | 3.2 | 0.00 | 0.00 | 0.00 | 88 | 1019.4 |
| 20260506141321 | 11 | 199 | 3.2 | 4.8 | 0.00 | 0.00 | 0.00 | 87 | 1019.6 |
| 20260506140818 | 11 | 229 | 3.2 | 4.8 | 0.00 | 0.00 | 0.00 | 87 | 1019.4 |
| 20260506140315 | 11 | 177 | 4.8 | 6.4 | 0.00 | 0.00 | 0.00 | 87 | 1019.4 |
| 20260506135812 | 11 | 200 | 4.8 | 4.8 | 0.00 | 0.00 | 0.00 | 87 | 1019.6 |
| 20260506135308 | 11 | 201 | 3.2 | 3.2 | 0.00 | 0.00 | 0.00 | 88 | 1019.5 |
| 20260506134805 | 11 | 166 | 3.2 | 3.2 | 0.00 | 0.00 | 0.00 | 88 | 1019.2 |
| 20260506134301 | 11 | 195 | 1.6 | 3.2 | 0.00 | 0.00 | 0.00 | 88 | 1019.5 |
| 20260506133759 | 11 | 183 | 6.4 | 9.7 | 0.00 | 0.00 | 0.00 | 88 | 1019.5 |
| 20260506133255 | 11 | 165 | 6.4 | 9.7 | 0.00 | 0.00 | 0.00 | 88 | 1019.4 |
| 20260506132752 | 11 | 196 | 3.2 | 4.8 | 0.00 | 0.00 | 0.00 | 88 | 1019.4 |
| 20260506132249 | 11 | 215 | 3.2 | 3.2 | 0.00 | 0.00 | 0.00 | 88 | 1019.5 |
| 20260506131747 | 11 | 231 | 4.8 | 4.8 | 0.00 | 0.00 | 0.00 | 88 | 1019.3 |
| 20260506131243 | 11 | 217 | 8.0 | 11.3 | 0.00 | 0.00 | 0.00 | 88 | 1019.1 |
| 20260506130740 | 11 | 219 | 6.4 | 6.4 | 0.00 | 0.00 | 0.00 | 88 | 1019.1 |
| 20260506130237 | 11 | 182 | 6.4 | 6.4 | 0.00 | 0.00 | 0.00 | 88 | 1019.2 |
| 20260506125735 | 11 | 231 | 4.8 | 4.8 | 0.00 | 0.00 | 0.00 | 87 | 1019.1 |
| 20260506125233 | 11 | 202 | 4.8 | 4.8 | 0.00 | 0.00 | 0.00 | 87 | 1018.9 |
| 20260506124731 | 11 | 204 | 6.4 | 9.7 | 0.00 | 0.00 | 0.00 | 87 | 1019.0 |
| 20260506124228 | 11 | 281 | 4.8 | 4.8 | 0.00 | 0.00 | 0.00 | 87 | 1019.0 |
| 20260506123725 | 11 | 211 | 8.0 | 9.7 | 0.00 | 0.00 | 0.00 | 87 | 1019.0 |
| 20260506123224 | 11 | 203 | 6.4 | 6.4 | 0.00 | 0.00 | 0.00 | 86 | 1018.9 |
| 20260506122720 | 11 | 209 | 4.8 | 6.4 | 0.00 | 0.00 | 0.00 | 86 | 1018.9 |
| 20260506122218 | 11 | 225 | 6.4 | 6.4 | 0.00 | 0.00 | 0.00 | 85 | 1018.9 |
| 20260506121716 | 12 | 144 | 1.6 | 1.6 | 0.00 | 0.00 | 0.00 | 86 | 1018.9 |
| 20260506121212 | 12 | 231 | 4.8 | 6.4 | 0.00 | 0.00 | 0.00 | 86 | 1018.8 |
| 20260506120710 | 12 | 231 | 4.8 | 6.4 | 0.00 | 0.00 | 0.00 | 85 | 1019.0 |
| 20260506120207 | 12 | 165 | 3.2 | 4.8 | 0.00 | 0.00 | 0.00 | 85 | 1018.8 |
| 20260506115705 | 12 | 212 | 3.2 | 3.2 | 0.00 | 0.00 | 0.00 | 86 | 1018.5 |
| 20260506115203 | 12 | 231 | 6.4 | 6.4 | 0.00 | 0.00 | 0.00 | 86 | 1018.4 |
| 20260506114700 | 12 | 196 | 3.2 | 3.2 | 0.00 | 0.00 | 0.00 | 86 | 1018.4 |
| 20260506114158 | 11 | 100 | 0.0 | 0.0 | 0.00 | 0.00 | 0.00 | 87 | 1018.6 |
| 20260506113656 | 11 | 144 | 0.0 | 1.6 | 0.00 | 0.00 | 0.00 | 87 | 1018.5 |
| 20260506113153 | 11 | 113 | 0.0 | 1.6 | 0.00 | 0.00 | 0.00 | 88 | 1018.6 |
| 20260506112649 | 11 | 76 | 0.0 | 0.0 | 0.00 | 0.00 | 0.00 | 88 | 1018.6 |
| 20260506112147 | 11 | 213 | 0.0 | 1.6 | 0.00 | 0.00 | 0.00 | 88 | 1018.7 |
| 20260506111644 | 11 | 79 | 0.0 | 0.0 | 0.00 | 0.00 | 0.00 | 88 | 1018.7 |
| 20260506111142 | 11 | 58 | 0.0 | 0.0 | 0.00 | 0.00 | 0.00 | 88 | 1018.7 |
| 20260506110639 | 11 | 91 | 1.6 | 3.2 | 0.00 | 0.00 | 0.00 | 87 | 1018.4 |
| 20260506110136 | 11 | 5 | 1.6 | 3.2 | 0.00 | 0.00 | 0.00 | 87 | 1018.4 |
| 20260506105633 | 11 | 90 | 0.0 | 0.0 | 0.00 | 0.00 | 0.00 | 87 | 1018.4 |
| 20260506105130 | 11 | 91 | 0.0 | 1.6 | 0.00 | 0.00 | 0.00 | 86 | 1018.3 |
| 20260506104628 | 11 | 66 | 0.0 | 0.0 | 0.00 | 0.00 | 0.00 | 86 | 1018.4 |
| 20260506104125 | 11 | 69 | 0.0 | 0.0 | 0.00 | 0.00 | 0.00 | 86 | 1018.6 |
| 20260506103623 | 12 | 61 | 0.0 | 0.0 | 0.00 | 0.00 | 0.00 | 86 | 1018.4 |
| 20260506103119 | 12 | 59 | 0.0 | 0.0 | 0.00 | 0.00 | 0.00 | 85 | 1018.2 |
| 20260506102618 | 12 | 45 | 0.0 | 0.0 | 0.00 | 0.00 | 0.00 | 85 | 1018.1 |
| 20260506102115 | 12 | 60 | 0.0 | 0.0 | 0.00 | 0.00 | 0.00 | 85 | 1018.3 |
| 20260506101611 | 12 | 199 | 3.2 | 3.2 | 0.00 | 0.00 | 0.00 | 85 | 1018.1 |
| 20260506101108 | 12 | 199 | 1.6 | 1.6 | 0.00 | 0.00 | 0.00 | 85 | 1018.1 |
| 20260506100607 | 12 | 220 | 1.6 | 1.6 | 0.00 | 0.00 | 0.00 | 85 | 1017.8 |
| 20260506100104 | 12 | 222 | 0.0 | 0.0 | 0.00 | 0.00 | 0.00 | 85 | 1017.9 |
| 20260506095603 | 12 | 223 | 1.6 | 1.6 | 0.00 | 0.00 | 0.00 | 85 | 1017.9 |
| 20260506095059 | 12 | 45 | 0.0 | 0.0 | 0.00 | 0.00 | 0.00 | 85 | 1018.0 |
| 20260506094557 | 12 | 75 | 0.0 | 0.0 | 0.00 | 0.00 | 0.00 | 85 | 1017.9 |
| 20260506094054 | 12 | 186 | 3.2 | 3.2 | 0.00 | 0.00 | 0.00 | 85 | 1017.7 |
| 20260506093552 | 12 | 145 | 0.0 | 0.0 | 0.00 | 0.00 | 0.00 | 85 | 1017.7 |
| 20260506093049 | 12 | 0 | 1.6 | 1.6 | 0.00 | 0.00 | 0.00 | 85 | 1017.5 |
| 20260506092548 | 12 | 213 | 4.8 | 4.8 | 0.00 | 0.00 | 0.00 | 85 | 1017.7 |
| 20260506092044 | 12 | 192 | 3.2 | 4.8 | 0.00 | 0.00 | 0.00 | 85 | 1017.9 |
| 20260506091542 | 12 | 213 | 3.2 | 3.2 | 0.00 | 0.00 | 0.00 | 85 | 1017.6 |
| 20260506091039 | 12 | 123 | 1.6 | 3.2 | 0.00 | 0.00 | 0.00 | 85 | 1017.8 |
| 20260506090537 | 12 | 122 | 3.2 | 3.2 | 0.00 | 0.00 | 0.00 | 85 | 1017.7 |
| 20260506090033 | 12 | 65 | 1.6 | 3.2 | 0.00 | 0.00 | 0.00 | 85 | 1017.8 |
| 20260506085530 | 12 | 193 | 4.8 | 4.8 | 0.00 | 0.00 | 0.00 | 85 | 1017.7 |
| 20260506085026 | 12 | 142 | 1.6 | 3.2 | 0.00 | 0.00 | 0.00 | 85 | 1017.5 |
| 20260506084524 | 12 | 55 | 1.6 | 1.6 | 0.00 | 0.00 | 0.00 | 85 | 1017.7 |
| 20260506084019 | 12 | 195 | 3.2 | 3.2 | 0.00 | 0.00 | 0.00 | 85 | 1017.7 |
| 20260506083517 | 12 | 201 | 4.8 | 4.8 | 0.00 | 0.00 | 0.00 | 85 | 1017.6 |
| 20260506083014 | 12 | 156 | 1.6 | 1.6 | 0.00 | 0.00 | 0.00 | 86 | 1017.8 |
| 20260506082511 | 11 | 119 | 1.6 | 1.6 | 0.00 | 0.00 | 0.00 | 86 | 1017.6 |
| 20260506082007 | 11 | 179 | 1.6 | 1.6 | 0.00 | 0.00 | 0.00 | 86 | 1017.7 |
| 20260506081505 | 11 | 203 | 1.6 | 3.2 | 0.00 | 0.00 | 0.00 | 86 | 1017.8 |
| 20260506081002 | 11 | 186 | 1.6 | 1.6 | 0.00 | 0.00 | 0.00 | 87 | 1017.4 |
| 20260506080459 | 11 | 105 | 0.0 | 0.0 | 0.00 | 0.00 | 0.00 | 87 | 1017.3 |